Hlavní strana
METAR-TAF:

METAR-TAF

Letiště :

Tyndallova letecká základna

Panama City, Florida, Spojené státy americké

zeměpisná šířka: 30-04N, zeměpisná délka: 085-35W, výška: 5 m

Aktuální stav počasí

Zpráva byla vytvořena před 32 minutami, v 16:56 UTC
Severní vítr 11 kt
Teplota 11°C
Vlhkost vzduchu 82%
Tlak 1018 hPa
Viditelnost: 16.1 km
Zataženo ve výšce 1100 ft

METAR: KPAM 151656Z AUTO 01011KT 10SM OVC011 11/08 A3007 RMK AO2 SLP186 T01120081 $

Čas: 11:28 (17:28 UTC)

Předpověď počasí

Zpráva byla vytvořena před 1 hodinou a 48 minutami, v 15:40 UTC
Předpověď platná od 15 v 15 UTC do 16 v 17 UTC
Severní vítr 12 kt s nárazy do 18 kt
Viditelnost 10 km a více
Oblačno až skoro zataženo ve výšce 700 ft
Změna
od 15 v 17 UTC do 15 v 18 UTC
Jihojihozápadní vítr 12 kt s nárazy do 18 kt
Viditelnost 10 km a více
Oblačno až skoro zataženo ve výšce 2000 ft

TAF: KPAM 151540Z 1515/1617 01012G18KT 9999 BKN007 QNH3001INS BECMG 1517/1518 21012G18KT 9999 BKN020 QNH3000INS TX14/1520Z TN08/1609Z

Stav a předpovědi počasí z více než 4 000 letišť (zprávy METAR a TAF).

Červené a žluté tečky na mapě představují dostupné meteorologické stanice.

Když kurzor umístíte na tečku, zobrazí se název stanice.

Pak kliknutím zobrazíte stav a předpověď počasí.

Chcete-li změnit mapu, kliknutím na zelené tlačítko se znaménkem +mapu přiblížíte, kliknutím na zelené tlačítko se znaménkem – mapu oddálíte a kliknutím na zelené šipky přejdete na sousední mapy.


METAR-TAF: